Time;durP1;ratioP1;P1;durP2;ratioP2;P2;SDS_P1;SDS_P2;PMS_P1;PMS_P2;Temp;Humidity;BMP_temperature;BMP_pressure;BME280_temperature;BME280_humidity;BME280_pressure;Samples;Min_cycle;Max_cycle;Signal;HPM_P1;HPM_P2
2023/08/14 00:01:22;;;;;;;;;10.33;10.33;;;;;;;;5047117;28;50942;-55
2023/08/14 00:03:47;;;;;;;;;11.00;10.00;;;;;;;;5052986;28;50976;-56
2023/08/14 00:06:12;;;;;;;;;11.00;11.00;;;;;;;;5053608;28;51106;-57
2023/08/14 00:08:37;;;;;;;;;9.00;7.00;;;;;;;;5052996;28;51957;-56
2023/08/14 00:11:02;;;;;;;;;9.67;9.00;;;;;;;;5051113;28;51469;-56
2023/08/14 00:13:28;;;;;;;;;9.00;7.67;;;;;;;;5053336;28;51171;-56
2023/08/14 00:15:53;;;;;;;;;9.00;9.00;;;;;;;;5052518;28;51115;-56
2023/08/14 00:18:18;;;;;;;;;7.00;6.00;;;;;;;;5052048;28;51700;-56
2023/08/14 00:20:44;;;;;;;;;7.33;7.00;;;;;;;;5050878;28;51012;-55
2023/08/14 00:23:09;;;;;;;;;6.67;6.67;;;;;;;;5066272;28;50979;-56
2023/08/14 00:25:34;;;;;;;;;7.33;7.00;;;;;;;;5053424;28;50994;-55
2023/08/14 00:27:59;;;;;;;;;9.00;7.00;;;;;;;;5052237;28;51975;-54
2023/08/14 00:30:24;;;;;;;;;12.00;8.33;;;;;;;;5050704;28;51107;-55
2023/08/14 00:32:50;;;;;;;;;7.00;7.00;;;;;;;;5049156;28;50919;-55
2023/08/14 00:35:15;;;;;;;;;10.67;10.00;;;;;;;;5046995;28;51132;-55
2023/08/14 00:37:45;;;;;;;;;7.33;7.33;;;;;;;;5049773;28;51717;-56
2023/08/14 00:40:10;;;;;;;;;8.67;8.00;;;;;;;;5049091;28;51091;-55
2023/08/14 00:42:37;;;;;;;;;6.67;6.67;;;;;;;;5050179;28;51099;-55
2023/08/14 00:45:02;;;;;;;;;8.67;8.00;;;;;;;;5052009;28;50893;-55
2023/08/14 00:47:28;;;;;;;;;8.67;8.67;;;;;;;;5051051;28;52110;-56
2023/08/14 00:49:53;;;;;;;;;8.33;7.00;;;;;;;;5049737;28;51108;-56
2023/08/14 00:52:18;;;;;;;;;8.00;6.67;;;;;;;;5051045;28;51068;-56
2023/08/14 00:54:44;;;;;;;;;8.00;7.00;;;;;;;;5051750;28;51045;-56
2023/08/14 00:57:09;;;;;;;;;6.00;5.67;;;;;;;;5052234;28;51019;-56
2023/08/14 00:59:34;;;;;;;;;8.00;7.33;;;;;;;;5052336;28;51185;-56
2023/08/14 01:02:00;;;;;;;;;6.33;6.33;;;;;;;;5059236;28;51092;-55
2023/08/14 01:04:25;;;;;;;;;9.00;7.67;;;;;;;;5051627;28;50877;-56
2023/08/14 01:06:50;;;;;;;;;7.33;7.00;;;;;;;;5051909;28;50905;-56
2023/08/14 01:09:16;;;;;;;;;9.33;9.00;;;;;;;;5051932;28;51142;-56
2023/08/14 01:12:01;;;;;;;;;7.00;6.00;;;;;;;;5057473;28;51245;-56
2023/08/14 01:14:29;;;;;;;;;6.00;6.00;;;;;;;;5056565;28;51162;-57
2023/08/14 01:16:57;;;;;;;;;7.00;7.00;;;;;;;;5050865;28;51846;-56
2023/08/14 01:19:25;;;;;;;;;6.00;5.00;;;;;;;;5050222;28;51242;-56
2023/08/14 01:21:59;;;;;;;;;9.00;8.00;;;;;;;;5051194;28;51327;-56
2023/08/14 01:24:43;;;;;;;;;7.00;7.00;;;;;;;;5048944;28;51211;-57
2023/08/14 01:27:08;;;;;;;;;11.00;11.00;;;;;;;;5050754;28;51171;-56
2023/08/14 01:29:34;;;;;;;;;7.67;6.00;;;;;;;;5049233;28;51116;-56
2023/08/14 01:31:59;;;;;;;;;5.00;5.00;;;;;;;;5051405;28;51126;-56
2023/08/14 01:34:24;;;;;;;;;7.33;7.33;;;;;;;;5047987;28;51254;-56
2023/08/14 01:37:04;;;;;;;;;10.67;8.33;;;;;;;;5051766;28;51792;-55
2023/08/14 01:39:37;;;;;;;;;8.00;5.67;;;;;;;;5051297;28;50855;-56
2023/08/14 01:42:05;;;;;;;;;8.67;6.67;;;;;;;;5050027;28;51142;-56
2023/08/14 01:44:31;;;;;;;;;7.00;7.00;;;;;;;;5050946;28;51044;-56
2023/08/14 01:46:57;;;;;;;;;7.00;7.00;;;;;;;;5051445;28;51892;-55
2023/08/14 01:49:23;;;;;;;;;7.00;6.33;;;;;;;;5050044;28;51055;-55
2023/08/14 01:51:49;;;;;;;;;7.33;7.00;;;;;;;;5052233;28;51179;-55
2023/08/14 01:54:14;;;;;;;;;8.00;7.67;;;;;;;;5050746;28;50947;-56
2023/08/14 01:56:39;;;;;;;;;9.00;8.33;;;;;;;;5053594;28;51245;-55
2023/08/14 01:59:04;;;;;;;;;5.33;5.00;;;;;;;;5054140;28;51313;-55
2023/08/14 02:01:30;;;;;;;;;7.00;7.00;;;;;;;;5056171;28;51164;-55
2023/08/14 02:03:55;;;;;;;;;6.00;6.00;;;;;;;;5056237;28;51084;-55
2023/08/14 02:06:20;;;;;;;;;7.00;7.00;;;;;;;;5055676;28;52058;-59
2023/08/14 02:08:45;;;;;;;;;7.00;7.00;;;;;;;;5055658;28;50977;-55
2023/08/14 02:11:10;;;;;;;;;6.00;5.00;;;;;;;;5055685;28;50870;-55
2023/08/14 02:13:36;;;;;;;;;5.00;5.00;;;;;;;;5056057;28;50869;-56
2023/08/14 02:16:04;;;;;;;;;7.67;7.00;;;;;;;;5055417;28;52024;-57
2023/08/14 02:18:29;;;;;;;;;8.33;7.33;;;;;;;;5071385;28;50895;-54
2023/08/14 02:20:54;;;;;;;;;8.33;7.33;;;;;;;;5054316;28;51013;-55
2023/08/14 02:23:19;;;;;;;;;5.67;5.67;;;;;;;;5054895;28;51207;-56
2023/08/14 02:25:45;;;;;;;;;7.67;6.00;;;;;;;;5054386;28;52029;-55
2023/08/14 02:28:10;;;;;;;;;6.33;6.00;;;;;;;;5053758;28;51117;-56
2023/08/14 02:30:37;;;;;;;;;8.33;7.00;;;;;;;;5053394;28;51171;-55
2023/08/14 02:33:02;;;;;;;;;6.33;6.00;;;;;;;;5051388;28;51196;-57
2023/08/14 02:35:27;;;;;;;;;7.00;7.00;;;;;;;;5049474;28;51077;-55
2023/08/14 02:37:53;;;;;;;;;6.00;6.00;;;;;;;;5053107;28;51127;-55
2023/08/14 02:40:18;;;;;;;;;7.00;6.00;;;;;;;;5051450;28;51386;-56
2023/08/14 02:42:43;;;;;;;;;6.33;6.33;;;;;;;;5054651;28;51059;-56
2023/08/14 02:45:08;;;;;;;;;7.00;7.00;;;;;;;;5054034;28;51208;-55
2023/08/14 02:47:34;;;;;;;;;5.67;5.67;;;;;;;;5053090;28;51165;-56
2023/08/14 02:49:59;;;;;;;;;6.33;6.33;;;;;;;;5053890;28;51133;-55
2023/08/14 02:52:24;;;;;;;;;5.33;5.00;;;;;;;;5054284;28;51249;-56
2023/08/14 02:54:49;;;;;;;;;5.00;5.00;;;;;;;;5053207;28;51982;-56
2023/08/14 02:57:14;;;;;;;;;6.00;5.00;;;;;;;;5054254;28;51032;-56
2023/08/14 02:59:40;;;;;;;;;6.67;6.00;;;;;;;;5051932;28;51001;-56
2023/08/14 03:02:05;;;;;;;;;5.00;4.33;;;;;;;;5055267;28;50881;-55
2023/08/14 03:04:30;;;;;;;;;5.67;5.33;;;;;;;;5052956;28;50925;-56
2023/08/14 03:06:55;;;;;;;;;6.00;5.00;;;;;;;;5055181;28;50981;-56
2023/08/14 03:09:21;;;;;;;;;5.67;5.67;;;;;;;;5051447;28;50877;-56
2023/08/14 03:11:46;;;;;;;;;5.00;5.00;;;;;;;;5053820;28;51215;-56
2023/08/14 03:14:11;;;;;;;;;4.00;4.00;;;;;;;;5052285;28;51912;-55
2023/08/14 03:16:36;;;;;;;;;5.33;4.33;;;;;;;;5049333;28;51160;-55
2023/08/14 03:19:01;;;;;;;;;4.00;3.00;;;;;;;;5053352;28;51336;-55
2023/08/14 03:21:27;;;;;;;;;5.00;4.00;;;;;;;;5054271;28;50916;-55
2023/08/14 03:23:52;;;;;;;;;7.67;5.00;;;;;;;;5053568;28;51612;-55
2023/08/14 03:26:17;;;;;;;;;5.33;4.33;;;;;;;;5052711;28;51028;-55
2023/08/14 03:28:42;;;;;;;;;5.00;5.00;;;;;;;;5053391;28;51021;-56
2023/08/14 03:31:07;;;;;;;;;7.67;6.33;;;;;;;;5054006;28;51351;-55
2023/08/14 03:33:33;;;;;;;;;5.00;5.00;;;;;;;;5053506;28;51970;-56
2023/08/14 03:35:58;;;;;;;;;5.00;5.00;;;;;;;;5051752;28;51047;-55
2023/08/14 03:38:23;;;;;;;;;7.67;6.00;;;;;;;;5051384;28;50937;-55
2023/08/14 03:40:48;;;;;;;;;5.67;5.00;;;;;;;;5053693;28;51398;-54
2023/08/14 03:43:13;;;;;;;;;6.00;6.00;;;;;;;;5053418;28;51967;-55
2023/08/14 03:45:38;;;;;;;;;7.67;5.33;;;;;;;;5050697;28;51166;-54
2023/08/14 03:48:04;;;;;;;;;4.33;4.00;;;;;;;;5052176;28;51097;-55
2023/08/14 03:50:29;;;;;;;;;6.00;5.33;;;;;;;;5052548;28;51157;-55
2023/08/14 03:52:55;;;;;;;;;5.67;5.00;;;;;;;;5053338;28;51848;-55
2023/08/14 03:55:20;;;;;;;;;6.33;4.00;;;;;;;;5052445;28;51157;-55
2023/08/14 03:57:45;;;;;;;;;6.33;5.33;;;;;;;;5052132;28;52463;-57
2023/08/14 04:00:10;;;;;;;;;5.00;5.00;;;;;;;;5051751;28;51369;-56
2023/08/14 04:02:35;;;;;;;;;5.00;5.00;;;;;;;;5052922;28;52506;-57
2023/08/14 04:05:01;;;;;;;;;4.00;4.00;;;;;;;;5052503;28;51182;-56
2023/08/14 04:07:26;;;;;;;;;5.33;4.33;;;;;;;;5061706;28;51210;-57
2023/08/14 04:09:51;;;;;;;;;5.00;4.00;;;;;;;;5054012;28;51342;-56
2023/08/14 04:12:16;;;;;;;;;4.00;3.67;;;;;;;;5051616;28;51846;-55
2023/08/14 04:14:43;;;;;;;;;6.67;5.67;;;;;;;;5052475;28;51070;-55
2023/08/14 04:17:08;;;;;;;;;5.00;4.67;;;;;;;;5052207;28;51059;-55
2023/08/14 04:19:33;;;;;;;;;5.67;4.67;;;;;;;;5050137;28;51297;-55
2023/08/14 04:21:59;;;;;;;;;6.00;5.00;;;;;;;;5051943;28;51697;-56
2023/08/14 04:24:24;;;;;;;;;6.00;6.00;;;;;;;;5053038;28;51039;-56
2023/08/14 04:26:49;;;;;;;;;6.33;6.00;;;;;;;;5053925;28;51572;-56
2023/08/14 04:29:16;;;;;;;;;3.00;2.33;;;;;;;;5052145;28;51125;-55
2023/08/14 04:31:41;;;;;;;;;5.67;5.67;;;;;;;;5052174;28;52831;-54
2023/08/14 04:34:07;;;;;;;;;7.00;7.00;;;;;;;;5046226;28;50826;-55
2023/08/14 04:36:35;;;;;;;;;6.33;5.67;;;;;;;;5051753;28;51507;-55
2023/08/14 04:39:00;;;;;;;;;6.33;5.00;;;;;;;;5049367;28;51224;-55
2023/08/14 04:41:26;;;;;;;;;7.33;6.00;;;;;;;;5047450;28;51135;-55
2023/08/14 04:43:51;;;;;;;;;9.00;7.00;;;;;;;;5052219;28;50964;-55
2023/08/14 04:46:30;;;;;;;;;6.33;6.00;;;;;;;;5053335;28;50909;-55
2023/08/14 04:48:56;;;;;;;;;4.00;4.00;;;;;;;;5052117;28;51149;-54
2023/08/14 04:51:21;;;;;;;;;4.67;4.67;;;;;;;;5049172;28;51126;-55
2023/08/14 04:53:46;;;;;;;;;4.00;4.00;;;;;;;;5051952;28;51072;-54
2023/08/14 04:56:11;;;;;;;;;6.00;6.00;;;;;;;;5040702;28;51383;-54
2023/08/14 04:58:36;;;;;;;;;4.67;4.67;;;;;;;;5035760;28;52282;-55
2023/08/14 05:01:02;;;;;;;;;6.00;6.00;;;;;;;;5036836;28;51187;-55
2023/08/14 05:03:27;;;;;;;;;4.00;3.00;;;;;;;;5038654;28;51197;-54
2023/08/14 05:05:52;;;;;;;;;4.00;4.00;;;;;;;;5036178;28;51320;-54
2023/08/14 05:08:17;;;;;;;;;4.33;4.00;;;;;;;;5036401;28;51673;-54
2023/08/14 05:10:43;;;;;;;;;1.00;1.00;;;;;;;;5036125;28;51972;-56
2023/08/14 05:13:08;;;;;;;;;8.00;6.00;;;;;;;;5037776;28;52684;-57
2023/08/14 05:15:33;;;;;;;;;6.33;6.33;;;;;;;;5035503;28;51073;-56
2023/08/14 05:17:58;;;;;;;;;5.33;4.00;;;;;;;;5041949;27;51912;-56
2023/08/14 05:20:24;;;;;;;;;6.67;5.00;;;;;;;;5037177;28;51922;-56
2023/08/14 05:22:49;;;;;;;;;3.67;3.67;;;;;;;;5036007;28;51412;-57
2023/08/14 05:25:14;;;;;;;;;5.00;5.00;;;;;;;;5035495;28;52752;-56
2023/08/14 05:27:39;;;;;;;;;4.00;4.00;;;;;;;;5036480;28;52815;-55
2023/08/14 05:30:05;;;;;;;;;5.33;5.00;;;;;;;;5034996;28;51657;-56
2023/08/14 05:32:30;;;;;;;;;6.67;6.33;;;;;;;;5037577;28;51244;-56
2023/08/14 05:34:56;;;;;;;;;5.00;5.00;;;;;;;;5044460;28;51160;-55
2023/08/14 05:37:21;;;;;;;;;4.67;4.67;;;;;;;;5035417;28;51138;-56
2023/08/14 05:39:46;;;;;;;;;6.33;6.00;;;;;;;;5035401;28;51371;-56
2023/08/14 05:42:11;;;;;;;;;5.33;5.00;;;;;;;;5035822;28;51067;-55
2023/08/14 05:44:36;;;;;;;;;3.00;2.67;;;;;;;;5038050;28;51165;-56
2023/08/14 05:47:02;;;;;;;;;6.00;6.00;;;;;;;;5035707;28;52672;-56
2023/08/14 05:49:27;;;;;;;;;6.33;6.00;;;;;;;;5035801;28;51925;-55
2023/08/14 05:51:52;;;;;;;;;8.33;7.67;;;;;;;;5036842;28;51218;-55
2023/08/14 05:54:17;;;;;;;;;4.00;4.00;;;;;;;;5037128;28;52727;-56
2023/08/14 05:56:43;;;;;;;;;6.00;5.67;;;;;;;;5036171;28;51700;-56
2023/08/14 05:59:09;;;;;;;;;4.67;4.33;;;;;;;;5034737;28;51183;-56
2023/08/14 06:01:34;;;;;;;;;5.67;5.00;;;;;;;;5032214;28;51385;-56
2023/08/14 06:03:59;;;;;;;;;5.67;5.67;;;;;;;;5032923;28;51950;-56
2023/08/14 06:06:24;;;;;;;;;5.00;4.00;;;;;;;;5033321;28;51154;-55
2023/08/14 06:08:49;;;;;;;;;5.67;5.33;;;;;;;;5034452;28;52689;-55
2023/08/14 06:11:15;;;;;;;;;7.67;7.33;;;;;;;;5035184;28;51285;-55
2023/08/14 06:13:40;;;;;;;;;5.33;5.33;;;;;;;;5034368;28;52184;-55
2023/08/14 06:16:05;;;;;;;;;6.00;5.00;;;;;;;;5035926;28;51819;-55
2023/08/14 06:18:31;;;;;;;;;5.00;5.00;;;;;;;;5034901;28;52440;-56
2023/08/14 06:20:56;;;;;;;;;4.33;4.00;;;;;;;;5036553;28;52786;-56
2023/08/14 06:23:21;;;;;;;;;6.00;5.00;;;;;;;;5036004;28;51835;-54
2023/08/14 06:25:46;;;;;;;;;4.33;4.33;;;;;;;;5036300;28;51103;-56
2023/08/14 06:28:11;;;;;;;;;4.67;3.00;;;;;;;;5035125;28;51265;-55
2023/08/14 06:30:37;;;;;;;;;4.00;4.00;;;;;;;;5035798;28;51207;-56
2023/08/14 06:33:02;;;;;;;;;5.67;5.00;;;;;;;;5034415;28;51701;-55
2023/08/14 06:35:27;;;;;;;;;3.33;3.33;;;;;;;;5036645;28;51419;-56
2023/08/14 06:37:53;;;;;;;;;5.33;5.33;;;;;;;;5034060;28;52688;-57
2023/08/14 06:40:18;;;;;;;;;5.00;5.00;;;;;;;;5034914;28;51148;-56
2023/08/14 06:42:43;;;;;;;;;6.33;6.33;;;;;;;;5036252;28;51208;-55
2023/08/14 06:45:09;;;;;;;;;5.00;4.67;;;;;;;;5038541;28;51754;-55
2023/08/14 06:47:41;;;;;;;;;7.33;7.00;;;;;;;;5038418;28;51659;-56
2023/08/14 06:50:07;;;;;;;;;6.00;6.00;;;;;;;;5038688;28;52707;-55
2023/08/14 06:52:32;;;;;;;;;7.00;6.00;;;;;;;;5037665;28;51998;-56
2023/08/14 06:54:57;;;;;;;;;6.00;6.00;;;;;;;;5040656;28;52638;-55
2023/08/14 06:57:22;;;;;;;;;4.33;4.00;;;;;;;;5038051;28;51645;-56
2023/08/14 06:59:48;;;;;;;;;5.67;4.00;;;;;;;;5037168;28;51919;-56
2023/08/14 07:02:13;;;;;;;;;5.00;4.67;;;;;;;;5038512;28;52652;-55
2023/08/14 07:04:38;;;;;;;;;4.00;4.00;;;;;;;;5037973;28;51151;-56
2023/08/14 07:07:03;;;;;;;;;4.67;4.67;;;;;;;;5036847;28;52706;-55
2023/08/14 07:09:29;;;;;;;;;7.67;6.33;;;;;;;;5038475;28;52663;-55
2023/08/14 07:11:54;;;;;;;;;4.00;4.00;;;;;;;;5037262;28;51336;-55
2023/08/14 07:14:19;;;;;;;;;6.33;5.33;;;;;;;;5042355;28;51298;-55
2023/08/14 07:16:44;;;;;;;;;4.00;4.00;;;;;;;;4982163;28;1611706;-55
2023/08/14 07:19:09;;;;;;;;;4.00;3.67;;;;;;;;5039090;28;51769;-56
2023/08/14 07:21:35;;;;;;;;;3.33;3.00;;;;;;;;5037970;28;52511;-56
2023/08/14 07:24:00;;;;;;;;;4.00;4.00;;;;;;;;5035116;28;51195;-57
2023/08/14 07:26:26;;;;;;;;;5.33;4.00;;;;;;;;5037336;28;53511;-56
2023/08/14 07:28:51;;;;;;;;;4.00;4.00;;;;;;;;5037438;28;51217;-56
2023/08/14 07:31:17;;;;;;;;;5.67;5.00;;;;;;;;5039973;28;51007;-55
2023/08/14 07:33:42;;;;;;;;;4.00;4.00;;;;;;;;5048161;28;51233;-56
2023/08/14 07:36:07;;;;;;;;;5.00;4.00;;;;;;;;5053213;28;51007;-55
2023/08/14 07:38:33;;;;;;;;;4.00;4.00;;;;;;;;5054156;28;51063;-56
2023/08/14 07:40:58;;;;;;;;;4.00;4.00;;;;;;;;5054327;28;51086;-55
2023/08/14 07:43:23;;;;;;;;;3.33;3.33;;;;;;;;5052542;28;51153;-56
2023/08/14 07:45:49;;;;;;;;;5.67;5.00;;;;;;;;5053732;28;52198;-54
2023/08/14 07:48:14;;;;;;;;;3.67;3.67;;;;;;;;5054420;28;51063;-53
2023/08/14 07:50:39;;;;;;;;;4.00;4.00;;;;;;;;5053430;28;50886;-54
2023/08/14 07:53:05;;;;;;;;;5.67;5.00;;;;;;;;5056902;28;50989;-58
2023/08/14 07:55:30;;;;;;;;;4.00;4.00;;;;;;;;5067267;28;51200;-58
2023/08/14 07:57:55;;;;;;;;;5.33;4.00;;;;;;;;5054023;28;51245;-57
2023/08/14 08:00:20;;;;;;;;;5.67;5.00;;;;;;;;5053812;28;51283;-59
2023/08/14 08:02:46;;;;;;;;;3.67;3.00;;;;;;;;5054423;28;51141;-60
2023/08/14 08:05:11;;;;;;;;;3.67;3.00;;;;;;;;5052958;28;51097;-59
2023/08/14 08:07:36;;;;;;;;;3.00;3.00;;;;;;;;5053080;28;51016;-60
2023/08/14 08:10:02;;;;;;;;;3.67;3.33;;;;;;;;5052801;28;51316;-58
2023/08/14 08:12:27;;;;;;;;;3.00;3.00;;;;;;;;5050132;28;51183;-58
2023/08/14 08:14:53;;;;;;;;;4.67;3.33;;;;;;;;5044963;28;51760;-58
2023/08/14 08:17:18;;;;;;;;;6.00;5.00;;;;;;;;5053888;28;50908;-60
2023/08/14 08:19:45;;;;;;;;;3.00;2.33;;;;;;;;5052674;28;51114;-59
2023/08/14 08:22:11;;;;;;;;;4.00;4.00;;;;;;;;5052823;28;51386;-58
2023/08/14 08:24:36;;;;;;;;;5.00;4.00;;;;;;;;5049996;28;52866;-59
2023/08/14 08:27:01;;;;;;;;;5.00;5.00;;;;;;;;5053197;28;50952;-58
2023/08/14 08:29:26;;;;;;;;;4.33;4.33;;;;;;;;5052277;28;51122;-59
2023/08/14 08:31:52;;;;;;;;;4.33;4.00;;;;;;;;5052533;28;50956;-59
2023/08/14 08:34:17;;;;;;;;;5.00;4.33;;;;;;;;5048422;28;51071;-58
2023/08/14 08:36:42;;;;;;;;;5.00;4.33;;;;;;;;5052436;28;50964;-59
2023/08/14 08:39:07;;;;;;;;;4.00;4.00;;;;;;;;5053331;28;51015;-59
2023/08/14 08:41:35;;;;;;;;;4.00;4.00;;;;;;;;5053530;28;51338;-58
2023/08/14 08:44:10;;;;;;;;;4.33;4.00;;;;;;;;5051786;28;52733;-59
2023/08/14 08:46:39;;;;;;;;;4.33;4.00;;;;;;;;5052884;28;50984;-59
2023/08/14 08:49:05;;;;;;;;;4.00;4.00;;;;;;;;5051163;28;51608;-59
2023/08/14 08:51:30;;;;;;;;;4.67;4.33;;;;;;;;5052967;28;51294;-58
2023/08/14 08:53:56;;;;;;;;;6.00;4.00;;;;;;;;5052663;28;51937;-58
2023/08/14 08:56:22;;;;;;;;;4.33;4.00;;;;;;;;5052837;28;50912;-59
2023/08/14 08:58:47;;;;;;;;;4.67;4.00;;;;;;;;5051466;28;51134;-59
2023/08/14 09:01:13;;;;;;;;;4.67;4.67;;;;;;;;5051200;28;51889;-60
2023/08/14 09:03:38;;;;;;;;;3.00;3.00;;;;;;;;5052685;28;51065;-60
2023/08/14 09:06:03;;;;;;;;;5.00;5.00;;;;;;;;5051819;28;51000;-60
2023/08/14 09:08:28;;;;;;;;;3.33;3.00;;;;;;;;5065588;28;51061;-59
2023/08/14 09:10:59;;;;;;;;;3.33;3.33;;;;;;;;5051628;28;50910;-60
2023/08/14 09:13:25;;;;;;;;;1.67;1.67;;;;;;;;5035525;28;51866;-60
2023/08/14 09:15:51;;;;;;;;;4.00;4.00;;;;;;;;5049291;28;51179;-60
2023/08/14 09:18:16;;;;;;;;;4.67;4.00;;;;;;;;5048157;28;51147;-60
2023/08/14 09:20:41;;;;;;;;;3.00;2.67;;;;;;;;5041921;28;51091;-60
2023/08/14 09:23:12;;;;;;;;;4.67;4.00;;;;;;;;5039752;28;51910;-60
2023/08/14 09:25:37;;;;;;;;;3.33;3.33;;;;;;;;5042445;28;51132;-60
2023/08/14 09:28:06;;;;;;;;;2.33;2.00;;;;;;;;5051974;28;51099;-60
2023/08/14 09:30:31;;;;;;;;;2.33;2.33;;;;;;;;5052534;28;51012;-61
2023/08/14 09:32:56;;;;;;;;;3.00;3.00;;;;;;;;5056603;28;51146;-60
2023/08/14 09:35:21;;;;;;;;;2.33;2.33;;;;;;;;5052453;28;51134;-60
2023/08/14 09:37:47;;;;;;;;;5.67;4.00;;;;;;;;5052406;28;51110;-61
2023/08/14 09:40:14;;;;;;;;;4.67;3.00;;;;;;;;5068207;28;51067;-59
2023/08/14 09:42:41;;;;;;;;;5.00;4.00;;;;;;;;5051806;28;52597;-60
2023/08/14 09:45:06;;;;;;;;;3.00;3.00;;;;;;;;5052166;28;50891;-60
2023/08/14 09:47:31;;;;;;;;;5.00;5.00;;;;;;;;5052013;28;50902;-59
2023/08/14 09:49:57;;;;;;;;;3.67;3.67;;;;;;;;5052473;28;51265;-59
2023/08/14 09:52:23;;;;;;;;;5.00;3.33;;;;;;;;5051642;28;51743;-60
2023/08/14 09:54:49;;;;;;;;;5.00;4.00;;;;;;;;5051986;28;50938;-59
2023/08/14 09:57:14;;;;;;;;;4.67;4.00;;;;;;;;5051919;28;51014;-59
2023/08/14 09:59:40;;;;;;;;;4.00;4.00;;;;;;;;5044199;28;50960;-59
2023/08/14 10:02:11;;;;;;;;;4.00;4.00;;;;;;;;5051565;28;51040;-60
2023/08/14 10:04:37;;;;;;;;;4.67;3.00;;;;;;;;5051583;28;51251;-59
2023/08/14 10:07:02;;;;;;;;;4.00;3.00;;;;;;;;5051401;28;51127;-59
2023/08/14 10:09:30;;;;;;;;;5.33;4.33;;;;;;;;5051928;28;51127;-59
2023/08/14 10:11:57;;;;;;;;;3.33;3.33;;;;;;;;5051466;28;51209;-60
2023/08/14 10:14:24;;;;;;;;;4.00;4.00;;;;;;;;5038049;28;51944;-61
2023/08/14 10:16:50;;;;;;;;;4.67;4.67;;;;;;;;5039493;28;51050;-60
2023/08/14 10:19:18;;;;;;;;;3.00;3.00;;;;;;;;5041097;28;50916;-59
2023/08/14 10:21:44;;;;;;;;;4.67;4.00;;;;;;;;5053406;28;52410;-61
2023/08/14 10:24:11;;;;;;;;;5.00;4.00;;;;;;;;5055084;28;51237;-60
2023/08/14 10:26:37;;;;;;;;;5.33;4.33;;;;;;;;5054934;28;51050;-60
2023/08/14 10:29:02;;;;;;;;;4.00;3.67;;;;;;;;5053530;28;51402;-59
2023/08/14 10:31:28;;;;;;;;;1.67;1.67;;;;;;;;5054509;28;51004;-60
2023/08/14 10:33:55;;;;;;;;;5.00;4.33;;;;;;;;5054896;28;51076;-59
2023/08/14 10:36:21;;;;;;;;;4.33;4.33;;;;;;;;5055148;28;51120;-60
2023/08/14 10:38:46;;;;;;;;;5.00;5.00;;;;;;;;5054712;28;50850;-59
2023/08/14 10:41:13;;;;;;;;;4.33;4.00;;;;;;;;5054203;28;51088;-59
2023/08/14 10:43:39;;;;;;;;;6.00;5.33;;;;;;;;5054510;28;50875;-59
2023/08/14 10:46:09;;;;;;;;;5.00;5.00;;;;;;;;5054731;28;51190;-59
2023/08/14 10:48:35;;;;;;;;;5.33;5.33;;;;;;;;5055247;28;50971;-60
2023/08/14 10:51:01;;;;;;;;;5.00;5.00;;;;;;;;5054373;28;51868;-60
2023/08/14 10:53:28;;;;;;;;;4.67;3.67;;;;;;;;5054620;28;50938;-60
2023/08/14 10:55:53;;;;;;;;;5.33;5.33;;;;;;;;5054587;28;50945;-60
2023/08/14 10:58:28;;;;;;;;;6.67;5.00;;;;;;;;5054904;28;50979;-58
2023/08/14 11:00:53;;;;;;;;;12.33;11.67;;;;;;;;5054249;28;50997;-59
2023/08/14 11:03:18;;;;;;;;;3.33;3.00;;;;;;;;5067882;28;50938;-60
2023/08/14 11:05:44;;;;;;;;;4.33;4.33;;;;;;;;5054903;28;50889;-60
2023/08/14 11:08:11;;;;;;;;;3.00;3.00;;;;;;;;5044664;28;51058;-60
2023/08/14 11:10:36;;;;;;;;;3.67;3.67;;;;;;;;5050625;28;51064;-60
2023/08/14 11:13:02;;;;;;;;;6.67;5.67;;;;;;;;5054487;28;51124;-60
2023/08/14 11:15:30;;;;;;;;;3.67;3.67;;;;;;;;5070094;28;51167;-60
2023/08/14 11:17:55;;;;;;;;;4.00;4.00;;;;;;;;5054269;28;51218;-60
2023/08/14 11:20:20;;;;;;;;;4.00;4.00;;;;;;;;5053663;28;51196;-60
2023/08/14 11:22:46;;;;;;;;;4.00;3.67;;;;;;;;5053781;28;51032;-60
2023/08/14 11:25:17;;;;;;;;;4.00;4.00;;;;;;;;5070754;28;52446;-60
2023/08/14 11:27:48;;;;;;;;;5.00;5.00;;;;;;;;5054310;28;51168;-60
2023/08/14 11:30:13;;;;;;;;;7.00;6.67;;;;;;;;5052976;28;50972;-60
2023/08/14 11:32:38;;;;;;;;;4.00;3.00;;;;;;;;5053837;28;50881;-61
2023/08/14 11:35:04;;;;;;;;;3.33;2.33;;;;;;;;5054221;28;50982;-60
2023/08/14 11:37:30;;;;;;;;;6.67;6.00;;;;;;;;5053965;28;51323;-61
2023/08/14 11:39:55;;;;;;;;;4.67;4.00;;;;;;;;5053120;28;51042;-60
2023/08/14 11:42:20;;;;;;;;;5.33;3.33;;;;;;;;5054139;28;50937;-60
2023/08/14 11:44:45;;;;;;;;;4.33;3.67;;;;;;;;5053894;28;50871;-61
2023/08/14 11:47:11;;;;;;;;;2.00;2.00;;;;;;;;5054322;28;51065;-60
2023/08/14 11:49:37;;;;;;;;;3.67;3.67;;;;;;;;5053886;28;50987;-60
2023/08/14 11:52:06;;;;;;;;;3.33;3.33;;;;;;;;5053670;28;51074;-59
2023/08/14 11:54:32;;;;;;;;;6.00;5.00;;;;;;;;4999501;28;1590259;-59
2023/08/14 11:57:00;;;;;;;;;6.00;5.33;;;;;;;;5046243;28;50775;-59
2023/08/14 11:59:25;;;;;;;;;5.00;5.00;;;;;;;;5034510;28;51094;-60
2023/08/14 12:01:50;;;;;;;;;3.00;3.00;;;;;;;;5053410;28;51011;-60
2023/08/14 12:04:16;;;;;;;;;4.00;4.00;;;;;;;;5053783;28;50930;-59
2023/08/14 12:06:42;;;;;;;;;6.00;4.00;;;;;;;;5053347;28;50939;-59
2023/08/14 12:09:09;;;;;;;;;3.33;3.33;;;;;;;;5053520;28;52337;-61
2023/08/14 12:11:35;;;;;;;;;4.00;4.00;;;;;;;;5052790;28;51188;-60
2023/08/14 12:14:03;;;;;;;;;3.33;3.00;;;;;;;;5051636;28;51100;-60
2023/08/14 12:16:28;;;;;;;;;4.00;4.00;;;;;;;;5039665;28;50959;-60
2023/08/14 12:18:53;;;;;;;;;5.67;5.00;;;;;;;;5068192;28;52727;-60
2023/08/14 12:21:18;;;;;;;;;6.00;5.00;;;;;;;;5052958;28;50925;-59
2023/08/14 12:23:45;;;;;;;;;4.33;4.33;;;;;;;;5052873;28;51096;-61
2023/08/14 12:26:10;;;;;;;;;5.33;5.00;;;;;;;;5053456;28;51331;-60
2023/08/14 12:28:35;;;;;;;;;3.67;3.67;;;;;;;;5051074;28;52445;-59
2023/08/14 12:31:01;;;;;;;;;3.33;3.33;;;;;;;;5053387;28;51032;-59
2023/08/14 12:33:26;;;;;;;;;6.00;5.33;;;;;;;;5053252;28;51023;-60
2023/08/14 12:35:52;;;;;;;;;5.00;4.67;;;;;;;;5053477;28;51256;-59
2023/08/14 12:38:18;;;;;;;;;4.00;4.00;;;;;;;;5052690;28;51710;-60
2023/08/14 12:40:44;;;;;;;;;4.00;3.67;;;;;;;;5051693;28;51271;-60
2023/08/14 12:43:09;;;;;;;;;2.33;2.33;;;;;;;;5053032;28;50997;-59
2023/08/14 12:45:35;;;;;;;;;4.00;4.00;;;;;;;;5051803;28;51213;-59
2023/08/14 12:48:00;;;;;;;;;2.33;2.33;;;;;;;;5040671;28;51287;-61
2023/08/14 12:50:25;;;;;;;;;7.00;6.00;;;;;;;;5068520;28;51065;-59
2023/08/14 12:52:50;;;;;;;;;4.00;4.00;;;;;;;;5052915;28;51175;-60
2023/08/14 12:55:16;;;;;;;;;4.33;3.67;;;;;;;;5053179;28;51038;-60
2023/08/14 12:57:41;;;;;;;;;4.00;4.00;;;;;;;;5052729;28;51699;-60
2023/08/14 13:00:07;;;;;;;;;4.67;4.00;;;;;;;;5052652;28;50867;-59
2023/08/14 13:02:32;;;;;;;;;3.33;2.67;;;;;;;;5051804;28;51157;-58
2023/08/14 13:04:57;;;;;;;;;5.00;5.00;;;;;;;;5068461;28;51326;-59
2023/08/14 13:07:23;;;;;;;;;5.00;4.00;;;;;;;;5052350;28;51582;-59
2023/08/14 13:09:48;;;;;;;;;5.67;5.00;;;;;;;;5052157;28;50921;-58
2023/08/14 13:12:13;;;;;;;;;4.33;4.33;;;;;;;;5052807;28;51273;-59
2023/08/14 13:14:38;;;;;;;;;4.67;4.67;;;;;;;;5052671;28;50815;-58
2023/08/14 13:17:03;;;;;;;;;6.00;6.00;;;;;;;;5052307;28;51047;-59
2023/08/14 13:19:29;;;;;;;;;4.67;4.00;;;;;;;;5038843;28;51048;-59
2023/08/14 13:21:54;;;;;;;;;4.00;4.00;;;;;;;;5052003;28;51152;-59
2023/08/14 13:24:19;;;;;;;;;6.00;6.00;;;;;;;;5045269;28;51250;-59
2023/08/14 13:26:44;;;;;;;;;2.67;2.67;;;;;;;;5051571;28;52412;-59
2023/08/14 13:29:10;;;;;;;;;5.60;5.20;;;;;;;;4950322;28;2948048;-62
2023/08/14 13:31:35;;;;;;;;;5.33;5.00;;;;;;;;5050838;28;51100;-60
2023/08/14 13:34:41;;;;;;;;;;;;;;;;;;4181344;28;65707379;-59
2023/08/14 13:37:06;;;;;;;;;6.50;6.50;;;;;;;;5048624;28;51207;-61
2023/08/14 13:39:32;;;;;;;;;4.67;4.67;;;;;;;;5051749;28;51045;-59
2023/08/14 13:41:57;;;;;;;;;5.33;5.00;;;;;;;;5052619;28;51147;-59
2023/08/14 13:44:22;;;;;;;;;5.00;5.00;;;;;;;;5051913;28;51367;-60
2023/08/14 13:46:47;;;;;;;;;9.67;8.67;;;;;;;;5051713;28;51095;-59
2023/08/14 13:49:13;;;;;;;;;6.33;6.00;;;;;;;;5051958;28;50925;-60
2023/08/14 13:51:39;;;;;;;;;6.33;6.33;;;;;;;;5051830;28;51207;-60
2023/08/14 13:54:04;;;;;;;;;4.50;4.50;;;;;;;;5055104;28;51357;-59
2023/08/14 13:56:29;;;;;;;;;9.33;7.33;;;;;;;;5055379;28;51028;-58
2023/08/14 13:58:54;;;;;;;;;7.00;6.00;;;;;;;;5046228;28;50974;-60
2023/08/14 14:01:20;;;;;;;;;4.33;4.00;;;;;;;;5051777;28;51270;-59
2023/08/14 14:03:45;;;;;;;;;5.33;5.33;;;;;;;;5054955;28;51075;-59
2023/08/14 14:06:10;;;;;;;;;6.00;5.33;;;;;;;;5055044;28;51098;-59
2023/08/14 14:08:35;;;;;;;;;5.00;4.33;;;;;;;;5055068;28;51186;-60
2023/08/14 14:11:00;;;;;;;;;6.00;5.00;;;;;;;;5055165;28;51056;-59
2023/08/14 14:13:26;;;;;;;;;4.00;4.00;;;;;;;;5055102;28;51039;-60
2023/08/14 14:15:51;;;;;;;;;5.33;5.33;;;;;;;;5049507;28;51143;-59
2023/08/14 14:18:17;;;;;;;;;4.67;4.67;;;;;;;;5055133;28;51188;-59
2023/08/14 14:21:05;;;;;;;;;;;;;;;;;;4026903;28;53744367;-59
2023/08/14 14:23:31;;;;;;;;;5.00;5.00;;;;;;;;5051508;28;51239;-60
2023/08/14 14:25:56;;;;;;;;;4.67;4.67;;;;;;;;5055030;28;50839;-60
2023/08/14 14:28:21;;;;;;;;;6.00;6.00;;;;;;;;5070232;28;51039;-60
2023/08/14 14:30:47;;;;;;;;;6.33;6.33;;;;;;;;5053384;28;50948;-60
2023/08/14 14:33:12;;;;;;;;;5.33;5.00;;;;;;;;5054460;28;51240;-60
2023/08/14 14:35:37;;;;;;;;;5.67;5.67;;;;;;;;5054373;28;51276;-60